Terminal Aerodrome Forecast
Issued by NWS Buffalo, NY

Home | Current Version | Previous Version | Text Only | Print | Product List | Glossary On
Versions: 1 2 3 4 5 6 7 8 9 10 11 12 13 14 15 16 17 18 19 20 21 22 23 24 25 26 27 28
000
FTUS41 KBUF 181100
TAFROC
TAF
KROC 181139Z 1812/1912 26004KT 6SM BR SCT015 BKN040
     FM181330 36008KT P6SM SCT007 BKN015
     FM181500 03010G18KT P6SM SCT007 BKN015
     FM181900 03009KT P6SM BKN015
     FM182100 02006KT P6SM SCT025 BKN035
     FM190100 09004KT P6SM SCT140=

USA.gov is the U.S. government's official web portal to all federal, state and local government web resources and services.